Time;durP1;ratioP1;P1;durP2;ratioP2;P2;SDS_P1;SDS_P2;PMS_P1;PMS_P2;Temp;Humidity;BMP_temperature;BMP_pressure;BME280_temperature;BME280_humidity;BME280_pressure;Samples;Min_cycle;Max_cycle;Signal;HPM_P1;HPM_P2
2022/07/25 00:00:08;;;;;;;8.13;5.80;;;28.50;93.30;;;;;;5038601;28;20025;-71
2022/07/25 00:02:34;;;;;;;5.70;5.07;;;28.50;93.40;;;;;;5043598;28;20383;-71
2022/07/25 00:05:00;;;;;;;6.68;5.40;;;28.50;93.50;;;;;;5037697;28;20107;-72
2022/07/25 00:07:26;;;;;;;6.57;5.93;;;28.50;93.50;;;;;;5041042;28;20127;-71
2022/07/25 00:09:52;;;;;;;10.20;6.03;;;28.50;93.60;;;;;;5038894;28;20017;-71
2022/07/25 00:12:18;;;;;;;6.75;6.03;;;28.50;93.60;;;;;;5045267;28;20048;-72
2022/07/25 00:14:44;;;;;;;6.45;5.85;;;28.40;93.40;;;;;;5042701;28;20059;-71
2022/07/25 00:17:10;;;;;;;7.88;6.00;;;28.40;93.60;;;;;;5047090;28;20110;-71
2022/07/25 00:19:36;;;;;;;8.88;6.18;;;28.40;93.60;;;;;;5042739;28;20026;-71
2022/07/25 00:22:01;;;;;;;8.55;6.28;;;28.40;93.70;;;;;;5046969;28;20033;-71
2022/07/25 00:24:27;;;;;;;6.78;6.10;;;28.40;93.70;;;;;;5042206;28;20060;-71
2022/07/25 00:26:53;;;;;;;6.07;5.53;;;28.30;93.50;;;;;;5047062;28;20036;-73
2022/07/25 00:29:19;;;;;;;6.20;5.60;;;28.30;93.60;;;;;;5041348;28;20029;-72
2022/07/25 00:31:44;;;;;;;8.20;5.82;;;28.30;93.30;;;;;;5046941;28;20032;-71
2022/07/25 00:34:10;;;;;;;6.95;5.45;;;28.30;93.40;;;;;;5042424;28;20067;-72
2022/07/25 00:36:36;;;;;;;8.55;6.05;;;28.30;93.30;;;;;;5046022;28;20040;-72
2022/07/25 00:39:03;;;;;;;10.18;5.97;;;28.30;93.20;;;;;;5041705;28;20059;-72
2022/07/25 00:41:29;;;;;;;7.32;5.88;;;28.30;93.00;;;;;;5044576;28;20025;-73
2022/07/25 00:43:55;;;;;;;7.43;5.80;;;28.30;93.10;;;;;;5045249;28;20094;-72
2022/07/25 00:46:21;;;;;;;6.10;5.50;;;28.30;93.20;;;;;;5045007;28;20067;-72
2022/07/25 00:48:47;;;;;;;7.30;5.80;;;28.30;93.10;;;;;;5045042;28;20365;-72
2022/07/25 00:51:13;;;;;;;10.55;5.80;;;28.30;92.90;;;;;;5044844;28;20035;-72
2022/07/25 00:53:39;;;;;;;7.10;6.13;;;28.30;92.90;;;;;;5043969;28;20021;-71
2022/07/25 00:56:05;;;;;;;6.93;5.65;;;28.30;93.00;;;;;;5045641;28;20119;-72
2022/07/25 00:58:31;;;;;;;6.03;5.43;;;28.30;92.90;;;;;;5047266;28;20025;-71
2022/07/25 01:01:00;;;;;;;6.72;5.60;;;28.30;92.70;;;;;;5047214;28;20040;-71
2022/07/25 01:03:25;;;;;;;7.72;5.75;;;28.20;92.80;;;;;;5046693;28;20095;-71
2022/07/25 01:05:51;;;;;;;9.00;5.82;;;28.20;92.80;;;;;;5040394;28;20025;-71
2022/07/25 01:08:18;;;;;;;6.68;5.97;;;28.10;92.90;;;;;;5042718;28;20416;-72
2022/07/25 01:10:45;;;;;;;7.07;6.18;;;28.10;93.00;;;;;;5043404;28;20025;-72
2022/07/25 01:13:14;;;;;;;6.55;5.85;;;28.10;92.80;;;;;;5043871;28;20030;-72
2022/07/25 01:15:42;;;;;;;6.25;5.50;;;28.10;92.80;;;;;;5038553;28;20087;-72
2022/07/25 01:18:07;;;;;;;9.25;5.40;;;28.10;92.90;;;;;;5044139;28;20033;-72
2022/07/25 01:20:33;;;;;;;8.88;5.88;;;28.10;92.90;;;;;;5036704;28;20044;-72
2022/07/25 01:22:59;;;;;;;7.45;6.20;;;28.00;93.00;;;;;;5042957;28;20025;-72
2022/07/25 01:25:26;;;;;;;6.63;5.90;;;28.00;93.00;;;;;;5043260;28;20369;-72
2022/07/25 01:27:52;;;;;;;6.85;6.15;;;28.00;92.90;;;;;;5042341;28;20033;-72
2022/07/25 01:30:19;;;;;;;11.30;6.13;;;28.00;93.00;;;;;;5043698;28;20400;-71
2022/07/25 01:32:46;;;;;;;9.15;6.32;;;28.00;93.00;;;;;;5050940;28;20020;-72
2022/07/25 01:35:12;;;;;;;8.68;5.72;;;27.90;93.10;;;;;;5037641;28;20033;-72
2022/07/25 01:37:39;;;;;;;9.27;6.05;;;27.90;93.30;;;;;;5044668;28;20095;-71
2022/07/25 01:40:05;;;;;;;7.38;5.68;;;27.90;93.30;;;;;;5041799;28;20041;-71
2022/07/25 01:42:32;;;;;;;5.88;5.28;;;27.90;93.10;;;;;;5044179;28;20503;-71
2022/07/25 01:45:00;;;;;;;6.70;5.25;;;27.90;93.10;;;;;;5040814;28;20029;-71
2022/07/25 01:47:29;;;;;;;6.85;6.15;;;27.90;93.20;;;;;;5045772;28;20067;-71
2022/07/25 01:49:55;;;;;;;6.03;5.43;;;27.90;93.30;;;;;;5040779;28;20021;-71
2022/07/25 01:52:20;;;;;;;12.15;6.03;;;27.90;93.30;;;;;;5045163;28;20020;-71
2022/07/25 01:54:46;;;;;;;8.65;6.10;;;27.90;93.50;;;;;;5040617;28;20148;-72
2022/07/25 01:57:12;;;;;;;6.95;5.88;;;27.90;93.60;;;;;;5044180;28;20072;-71
2022/07/25 01:59:39;;;;;;;6.88;6.25;;;27.90;93.60;;;;;;5042889;28;20525;-71
2022/07/25 02:02:09;;;;;;;8.25;5.68;;;27.90;93.70;;;;;;5043767;28;20060;-71
2022/07/25 02:04:35;;;;;;;7.85;5.97;;;27.90;93.80;;;;;;5040513;28;20387;-71
2022/07/25 02:07:04;;;;;;;6.47;5.88;;;27.80;93.90;;;;;;5039430;28;20029;-71
2022/07/25 02:09:30;;;;;;;6.30;5.63;;;27.80;94.10;;;;;;5042229;28;20036;-72
2022/07/25 02:11:56;;;;;;;7.15;6.40;;;27.80;94.30;;;;;;5036806;28;20029;-71
2022/07/25 02:14:22;;;;;;;6.28;5.72;;;27.80;94.30;;;;;;5041361;28;20041;-71
2022/07/25 02:16:48;;;;;;;6.88;6.18;;;27.80;94.40;;;;;;5037509;28;20132;-72
2022/07/25 02:19:14;;;;;;;9.70;6.47;;;27.70;94.50;;;;;;5040846;28;20101;-72
2022/07/25 02:21:40;;;;;;;7.15;5.97;;;27.70;94.60;;;;;;5047587;28;20100;-72
2022/07/25 02:24:06;;;;;;;11.68;6.43;;;27.70;94.70;;;;;;5039582;28;20032;-73
2022/07/25 02:26:32;;;;;;;7.45;6.30;;;27.70;94.70;;;;;;5042130;28;20041;-72
2022/07/25 02:28:58;;;;;;;10.23;6.25;;;27.60;94.80;;;;;;5042350;28;20028;-71
2022/07/25 02:31:26;;;;;;;11.18;6.35;;;27.60;95.00;;;;;;5038814;28;20119;-71
2022/07/25 02:33:52;;;;;;;7.97;6.53;;;27.60;95.00;;;;;;5041905;28;20533;-71
2022/07/25 02:36:18;;;;;;;7.28;6.20;;;27.50;95.10;;;;;;5039001;28;20037;-71
2022/07/25 02:38:43;;;;;;;7.10;6.40;;;27.50;95.10;;;;;;5038132;28;20063;-71
2022/07/25 02:41:10;;;;;;;8.40;6.10;;;27.50;95.20;;;;;;5037545;28;20061;-71
2022/07/25 02:43:35;;;;;;;7.28;6.00;;;27.50;95.40;;;;;;5040720;28;20048;-71
2022/07/25 02:46:01;;;;;;;8.27;5.82;;;27.40;95.30;;;;;;5042814;28;20024;-71
2022/07/25 02:48:27;;;;;;;7.40;6.70;;;27.50;95.50;;;;;;5039742;28;20021;-72
2022/07/25 02:50:53;;;;;;;7.30;6.22;;;27.40;95.60;;;;;;5043951;28;20529;-71
2022/07/25 02:53:18;;;;;;;7.07;6.38;;;27.40;95.70;;;;;;5040717;28;21368;-71
2022/07/25 02:55:44;;;;;;;6.97;6.28;;;27.40;95.80;;;;;;5037288;28;20488;-71
2022/07/25 02:58:10;;;;;;;9.52;6.55;;;27.40;95.90;;;;;;5042056;28;20025;-71
2022/07/25 03:00:36;;;;;;;7.97;6.20;;;27.40;95.90;;;;;;5042721;28;20025;-71
2022/07/25 03:03:01;;;;;;;11.68;6.53;;;27.40;95.90;;;;;;5047611;28;20472;-72
2022/07/25 03:05:27;;;;;;;6.80;6.20;;;27.30;95.90;;;;;;5040176;28;20495;-72
2022/07/25 03:07:53;;;;;;;8.77;6.53;;;27.30;96.00;;;;;;5035038;28;20034;-72
2022/07/25 03:10:18;;;;;;;10.02;6.60;;;27.30;96.10;;;;;;5044793;28;20451;-73
2022/07/25 03:12:44;;;;;;;7.07;6.38;;;27.30;96.10;;;;;;5042899;28;20029;-73
2022/07/25 03:15:11;;;;;;;7.30;6.60;;;27.30;96.30;;;;;;5034778;28;20099;-73
2022/07/25 03:17:38;;;;;;;10.40;5.90;;;27.30;96.40;;;;;;5037397;28;20046;-72
2022/07/25 03:20:05;;;;;;;7.55;6.47;;;27.20;96.30;;;;;;5044634;28;20025;-73
2022/07/25 03:22:31;;;;;;;7.35;6.65;;;27.20;96.40;;;;;;5035034;28;20029;-73
2022/07/25 03:24:57;;;;;;;7.13;6.10;;;27.20;96.40;;;;;;5044058;28;20029;-73
2022/07/25 03:27:22;;;;;;;8.43;6.43;;;27.20;96.60;;;;;;5043819;28;20033;-73
2022/07/25 03:29:53;;;;;;;7.57;6.68;;;27.20;97.00;;;;;;5039407;28;20024;-72
2022/07/25 03:32:19;;;;;;;9.13;6.90;;;27.20;96.70;;;;;;5048172;28;20071;-73
2022/07/25 03:34:45;;;;;;;8.20;6.28;;;27.10;96.70;;;;;;5040471;28;20472;-73
2022/07/25 03:37:11;;;;;;;7.50;6.78;;;27.10;96.80;;;;;;5039196;28;20051;-73
2022/07/25 03:39:36;;;;;;;7.10;6.25;;;27.10;96.80;;;;;;5039113;28;20052;-73
2022/07/25 03:42:02;;;;;;;8.30;6.30;;;27.10;96.80;;;;;;5042237;28;20527;-73
2022/07/25 03:44:28;;;;;;;7.28;6.47;;;27.10;96.90;;;;;;5033574;28;20021;-73
2022/07/25 03:46:54;;;;;;;8.38;7.22;;;27.10;97.00;;;;;;5046492;28;20036;-73
2022/07/25 03:49:19;;;;;;;10.68;7.28;;;27.10;97.10;;;;;;5043165;28;20029;-72
2022/07/25 03:51:45;;;;;;;10.10;6.38;;;27.10;97.30;;;;;;5047283;28;20040;-72
2022/07/25 03:54:14;;;;;;;8.63;6.53;;;27.00;97.20;;;;;;5042387;28;20030;-72
2022/07/25 03:56:45;;;;;;;7.70;6.70;;;27.00;97.40;;;;;;5047191;28;20045;-72
2022/07/25 03:59:14;;;;;;;12.00;7.00;;;27.10;97.50;;;;;;5044079;28;20025;-74
2022/07/25 04:01:41;;;;;;;8.15;6.30;;;27.00;97.40;;;;;;5046836;28;20036;-76
2022/07/25 04:04:07;;;;;;;6.93;6.30;;;27.00;97.50;;;;;;5045372;28;20052;-75
2022/07/25 04:06:33;;;;;;;7.97;6.85;;;27.00;97.50;;;;;;5042287;28;20108;-76
2022/07/25 04:08:59;;;;;;;7.57;6.53;;;27.00;97.60;;;;;;5036808;28;20021;-76
2022/07/25 04:11:27;;;;;;;10.35;6.70;;;27.00;97.70;;;;;;5045692;28;20079;-76
2022/07/25 04:13:54;;;;;;;7.80;6.47;;;27.00;97.80;;;;;;5045754;28;20529;-75
2022/07/25 04:16:20;;;;;;;9.38;6.15;;;27.00;97.90;;;;;;5045512;28;20456;-74
2022/07/25 04:18:46;;;;;;;7.45;6.38;;;27.00;98.00;;;;;;5045592;28;20083;-73
2022/07/25 04:21:11;;;;;;;9.18;6.28;;;27.00;98.00;;;;;;5045586;28;20025;-73
2022/07/25 04:23:37;;;;;;;10.55;6.47;;;27.00;98.20;;;;;;5044188;28;20153;-73
2022/07/25 04:26:03;;;;;;;9.23;6.45;;;27.00;98.20;;;;;;5043735;28;20052;-73
2022/07/25 04:28:29;;;;;;;8.80;6.97;;;27.00;98.20;;;;;;5043899;28;20025;-74
2022/07/25 04:30:55;;;;;;;7.97;6.82;;;27.00;98.40;;;;;;5040961;28;20029;-73
2022/07/25 04:33:21;;;;;;;7.60;6.28;;;27.00;98.40;;;;;;5053087;28;20024;-73
2022/07/25 04:35:47;;;;;;;9.07;6.32;;;27.00;98.50;;;;;;5040011;28;20112;-73
2022/07/25 04:38:13;;;;;;;14.70;7.05;;;27.10;98.60;;;;;;5044320;28;20109;-74
2022/07/25 04:40:39;;;;;;;7.10;6.40;;;27.10;98.60;;;;;;5045174;28;20032;-74
2022/07/25 04:43:05;;;;;;;7.20;6.50;;;27.10;98.80;;;;;;5044881;28;20041;-74
2022/07/25 04:45:31;;;;;;;7.43;6.43;;;27.10;99.00;;;;;;5044845;28;20082;-74
2022/07/25 04:47:57;;;;;;;9.60;6.80;;;27.10;99.00;;;;;;5049024;28;20487;-74
2022/07/25 04:50:23;;;;;;;7.13;6.22;;;27.10;99.00;;;;;;5047100;28;20044;-72
2022/07/25 04:52:49;;;;;;;6.80;6.20;;;27.10;99.10;;;;;;5039512;28;20025;-73
2022/07/25 04:55:15;;;;;;;7.18;6.47;;;27.10;99.20;;;;;;5040733;28;20079;-73
2022/07/25 04:57:40;;;;;;;7.30;6.60;;;27.20;99.20;;;;;;5048014;28;20384;-73
2022/07/25 05:00:08;;;;;;;8.07;6.45;;;27.20;99.20;;;;;;5038981;28;20119;-73
2022/07/25 05:02:34;;;;;;;7.65;6.88;;;27.20;99.30;;;;;;5060117;28;20021;-74
2022/07/25 05:05:00;;;;;;;7.10;6.50;;;27.20;99.30;;;;;;5043810;28;20053;-73
2022/07/25 05:07:25;;;;;;;8.95;6.80;;;27.30;99.50;;;;;;5037827;28;20060;-74
2022/07/25 05:09:51;;;;;;;9.50;6.80;;;27.30;99.20;;;;;;5045641;28;20028;-73
2022/07/25 05:12:17;;;;;;;8.15;6.40;;;27.40;99.30;;;;;;5046185;28;20041;-74
2022/07/25 05:14:43;;;;;;;7.75;6.13;;;27.40;99.10;;;;;;5041416;28;20112;-74
2022/07/25 05:17:09;;;;;;;9.25;6.90;;;27.40;99.10;;;;;;5046173;28;20063;-73
2022/07/25 05:19:35;;;;;;;9.88;6.80;;;27.50;99.10;;;;;;5041448;28;20104;-73
2022/07/25 05:22:01;;;;;;;8.23;6.00;;;27.50;99.00;;;;;;5046042;28;20547;-74
2022/07/25 05:24:27;;;;;;;7.70;6.32;;;27.60;99.00;;;;;;5042786;28;20512;-75
2022/07/25 05:26:53;;;;;;;8.50;6.97;;;27.60;99.00;;;;;;5039263;28;20061;-75
2022/07/25 05:29:18;;;;;;;8.90;6.20;;;27.60;98.80;;;;;;5045805;28;20060;-75
2022/07/25 05:31:44;;;;;;;7.50;6.80;;;27.70;98.80;;;;;;5039912;28;20047;-74
2022/07/25 05:34:10;;;;;;;9.90;6.85;;;27.80;98.80;;;;;;5043462;28;20070;-74
2022/07/25 05:36:35;;;;;;;8.10;6.78;;;27.80;98.70;;;;;;5035751;28;20399;-75
2022/07/25 05:39:02;;;;;;;6.93;6.20;;;27.80;98.50;;;;;;5043318;28;20202;-74
2022/07/25 05:41:27;;;;;;;14.93;6.70;;;27.90;98.50;;;;;;5043767;28;20026;-75
2022/07/25 05:43:53;;;;;;;7.95;6.57;;;27.90;98.20;;;;;;5044005;28;20036;-74
2022/07/25 05:46:19;;;;;;;11.00;6.78;;;28.00;98.10;;;;;;5045643;28;20028;-74
2022/07/25 05:48:45;;;;;;;7.68;6.07;;;28.10;97.90;;;;;;5041851;28;20029;-75
2022/07/25 05:51:13;;;;;;;21.08;7.50;;;28.10;97.60;;;;;;5043750;28;20394;-74
2022/07/25 05:53:39;;;;;;;12.07;6.57;;;28.20;97.30;;;;;;5042901;28;20032;-73
2022/07/25 05:56:05;;;;;;;9.20;6.57;;;28.30;97.30;;;;;;5042988;28;20033;-73
2022/07/25 05:58:31;;;;;;;22.17;6.95;;;28.30;97.10;;;;;;5041513;28;20028;-74
2022/07/25 06:00:57;;;;;;;7.38;6.60;;;28.40;96.80;;;;;;5044690;28;20021;-74
2022/07/25 06:03:23;;;;;;;8.32;6.25;;;28.40;96.60;;;;;;5047962;28;20468;-75
2022/07/25 06:05:51;;;;;;;9.20;6.20;;;28.50;96.10;;;;;;5038330;28;20045;-74
2022/07/25 06:08:19;;;;;;;6.55;5.93;;;28.60;96.00;;;;;;5041434;28;20084;-74
2022/07/25 06:10:45;;;;;;;11.50;6.10;;;28.70;95.80;;;;;;5038580;28;20044;-73
2022/07/25 06:13:11;;;;;;;6.70;6.00;;;28.70;95.60;;;;;;5042972;28;20384;-74
2022/07/25 06:15:37;;;;;;;11.93;6.07;;;28.80;95.00;;;;;;5046117;28;20028;-74
2022/07/25 06:18:02;;;;;;;10.80;6.40;;;28.80;95.20;;;;;;5045884;28;20494;-74
2022/07/25 06:20:28;;;;;;;6.95;6.10;;;28.90;95.20;;;;;;5038923;28;20087;-73
2022/07/25 06:22:54;;;;;;;8.02;6.03;;;29.00;94.90;;;;;;5040088;28;20036;-72
2022/07/25 06:25:19;;;;;;;8.63;6.43;;;29.10;95.00;;;;;;5044208;28;20032;-73
2022/07/25 06:27:45;;;;;;;8.70;6.25;;;29.10;94.80;;;;;;5043276;28;20048;-72
2022/07/25 06:30:14;;;;;;;10.77;6.03;;;29.30;94.10;;;;;;5041467;28;20017;-72
2022/07/25 06:32:40;;;;;;;6.75;6.15;;;29.30;94.10;;;;;;5048343;28;20033;-73
2022/07/25 06:35:06;;;;;;;6.40;5.80;;;29.40;93.90;;;;;;5035364;28;20029;-72
2022/07/25 06:37:35;;;;;;;6.82;5.97;;;29.40;93.90;;;;;;5042972;28;20040;-73
2022/07/25 06:40:00;;;;;;;6.53;5.90;;;29.50;93.70;;;;;;5036813;28;20025;-75
2022/07/25 06:42:29;;;;;;;9.93;6.60;;;29.60;93.80;;;;;;5037851;28;20045;-73
2022/07/25 06:44:55;;;;;;;6.75;5.88;;;29.70;93.50;;;;;;5043324;28;20480;-73
2022/07/25 06:47:20;;;;;;;15.13;6.38;;;29.70;93.50;;;;;;5039791;28;20033;-73
2022/07/25 06:49:47;;;;;;;8.10;5.88;;;29.80;93.00;;;;;;5040883;28;20491;-73
2022/07/25 06:52:13;;;;;;;9.75;6.35;;;29.90;93.10;;;;;;5042359;28;20029;-73
2022/07/25 06:54:39;;;;;;;9.23;6.03;;;30.00;93.10;;;;;;5039534;28;20102;-72
2022/07/25 06:57:04;;;;;;;6.32;5.60;;;30.10;92.30;;;;;;5038970;28;20036;-73
2022/07/25 06:59:30;;;;;;;12.30;6.03;;;30.10;91.80;;;;;;5038301;28;20468;-73
2022/07/25 07:01:56;;;;;;;6.63;5.90;;;30.20;91.70;;;;;;5046719;28;20043;-73
2022/07/25 07:04:21;;;;;;;7.53;5.90;;;30.20;91.70;;;;;;5038467;28;20075;-73
2022/07/25 07:06:47;;;;;;;7.53;5.90;;;30.30;91.00;;;;;;5033950;28;20030;-72
2022/07/25 07:09:13;;;;;;;16.33;6.13;;;30.40;90.70;;;;;;5038316;28;20380;-72
2022/07/25 07:11:38;;;;;;;8.43;5.25;;;30.40;90.20;;;;;;5042536;28;20030;-72
2022/07/25 07:14:04;;;;;;;8.88;5.72;;;30.50;89.70;;;;;;5040872;28;20108;-73
2022/07/25 07:16:30;;;;;;;7.32;5.75;;;30.60;89.70;;;;;;5040800;28;20042;-72
2022/07/25 07:18:57;;;;;;;8.38;6.03;;;30.60;89.50;;;;;;5042363;28;20427;-72
2022/07/25 07:21:23;;;;;;;7.70;5.53;;;30.70;89.10;;;;;;5041932;28;20029;-72
2022/07/25 07:23:49;;;;;;;6.40;5.32;;;30.80;88.80;;;;;;5039868;28;20085;-72
2022/07/25 07:26:15;;;;;;;5.70;5.07;;;30.90;87.70;;;;;;5042161;28;20052;-73
2022/07/25 07:28:40;;;;;;;9.35;5.30;;;31.00;86.60;;;;;;5036968;28;20037;-73
2022/07/25 07:31:06;;;;;;;7.72;5.32;;;31.00;85.90;;;;;;5042795;28;20436;-72
2022/07/25 07:33:32;;;;;;;9.57;5.55;;;31.10;86.30;;;;;;5044392;28;20113;-72
2022/07/25 07:35:58;;;;;;;8.32;5.57;;;31.10;85.30;;;;;;5038134;28;20025;-72
2022/07/25 07:38:25;;;;;;;6.82;5.07;;;31.20;84.90;;;;;;5039767;28;20487;-72
2022/07/25 07:40:51;;;;;;;5.20;4.55;;;31.30;84.50;;;;;;5042909;28;20100;-72
2022/07/25 07:43:17;;;;;;;6.75;5.35;;;31.40;83.30;;;;;;5039242;28;20140;-72
2022/07/25 07:45:46;;;;;;;5.72;4.90;;;31.40;82.50;;;;;;5042566;28;20699;-72
2022/07/25 07:48:11;;;;;;;6.10;4.85;;;31.40;81.70;;;;;;5040067;28;20029;-73
2022/07/25 07:50:37;;;;;;;5.47;4.75;;;31.50;80.70;;;;;;5037841;28;20032;-74
2022/07/25 07:53:03;;;;;;;6.38;4.80;;;31.50;80.50;;;;;;5041648;28;20388;-73
2022/07/25 07:55:44;;;;;;;6.07;4.88;;;31.60;80.50;;;;;;5041707;28;20069;-72
2022/07/25 07:58:19;;;;;;;6.00;4.72;;;31.60;81.20;;;;;;5040014;28;20560;-72
2022/07/25 08:00:47;;;;;;;6.45;5.10;;;31.70;80.30;;;;;;5045153;28;20071;-73
2022/07/25 08:03:17;;;;;;;5.88;5.30;;;31.80;79.80;;;;;;5046034;28;20030;-73
2022/07/25 08:05:44;;;;;;;6.38;4.63;;;31.90;80.40;;;;;;5036474;28;20036;-72
2022/07/25 08:08:12;;;;;;;6.72;4.70;;;31.90;80.90;;;;;;5039619;28;20104;-74
2022/07/25 08:10:41;;;;;;;6.97;4.75;;;32.10;78.70;;;;;;5042037;28;20021;-72
2022/07/25 08:13:24;;;;;;;5.25;4.75;;;32.20;78.90;;;;;;5039658;28;20391;-73
2022/07/25 08:15:52;;;;;;;8.32;5.05;;;32.20;77.40;;;;;;5034000;28;20124;-74
2022/07/25 08:18:19;;;;;;;8.35;4.50;;;32.20;76.10;;;;;;5040189;28;20034;-73
2022/07/25 08:20:49;;;;;;;6.85;4.95;;;32.20;75.80;;;;;;5041446;28;20500;-73
2022/07/25 08:23:15;;;;;;;5.80;5.13;;;32.20;76.70;;;;;;5040534;28;20036;-73
2022/07/25 08:25:43;;;;;;;9.57;4.90;;;32.30;76.30;;;;;;5037011;28;20606;-73
2022/07/25 08:28:08;;;;;;;5.75;4.40;;;32.40;77.70;;;;;;5039564;28;20027;-72
2022/07/25 08:30:35;;;;;;;5.00;4.57;;;32.60;75.60;;;;;;5042449;28;20328;-73
2022/07/25 08:33:04;;;;;;;4.80;4.38;;;32.80;74.80;;;;;;5049245;28;20400;-72
2022/07/25 08:35:32;;;;;;;6.15;5.03;;;32.90;74.80;;;;;;5039193;28;20031;-73
2022/07/25 08:37:59;;;;;;;6.50;4.78;;;33.00;75.20;;;;;;5042470;28;20390;-73
2022/07/25 08:40:27;;;;;;;5.45;4.68;;;33.00;73.50;;;;;;5046891;28;20014;-72
2022/07/25 08:42:55;;;;;;;6.38;4.78;;;33.10;74.30;;;;;;5047609;28;20543;-73
2022/07/25 08:45:21;;;;;;;8.77;4.60;;;33.00;74.80;;;;;;5047510;28;20025;-72
2022/07/25 08:47:49;;;;;;;8.18;5.57;;;33.00;74.20;;;;;;5045168;28;20036;-72
2022/07/25 08:50:19;;;;;;;10.88;5.28;;;33.10;76.10;;;;;;5047199;28;20079;-74
2022/07/25 08:52:47;;;;;;;7.03;5.95;;;32.80;82.30;;;;;;5043814;28;20033;-73
2022/07/25 08:55:19;;;;;;;7.22;5.32;;;32.40;90.60;;;;;;5041962;28;20049;-74
2022/07/25 08:57:50;;;;;;;6.93;5.22;;;32.20;87.70;;;;;;5045107;28;20050;-74
2022/07/25 09:00:22;;;;;;;10.70;6.28;;;32.00;83.40;;;;;;5043766;28;20025;-74
2022/07/25 09:02:51;;;;;;;;;;;31.90;85.40;;;;;;5049362;28;20033;-73
2022/07/25 09:05:18;;;;;;;8.82;5.97;;;31.90;87.50;;;;;;5038333;28;19913;-72
2022/07/25 09:07:44;;;;;;;9.13;5.65;;;31.90;84.70;;;;;;5045341;28;20024;-74
2022/07/25 09:10:12;;;;;;;9.95;5.38;;;31.70;87.30;;;;;;5042827;28;20383;-74
2022/07/25 09:12:37;;;;;;;6.75;5.95;;;31.70;85.50;;;;;;5045868;28;20121;-73
2022/07/25 09:15:04;;;;;;;7.07;6.22;;;31.60;85.70;;;;;;5042018;28;20107;-73
2022/07/25 09:17:29;;;;;;;13.25;6.10;;;31.60;85.20;;;;;;5039567;28;20033;-73
2022/07/25 09:19:56;;;;;;;12.55;6.35;;;31.60;85.60;;;;;;5040918;28;20373;-74
2022/07/25 09:22:25;;;;;;;7.18;6.07;;;31.60;86.60;;;;;;5040471;28;20051;-72
2022/07/25 09:24:50;;;;;;;7.10;5.95;;;31.70;85.80;;;;;;5045454;28;20025;-73
2022/07/25 09:27:17;;;;;;;15.35;6.07;;;31.90;83.90;;;;;;5045907;28;20429;-73
2022/07/25 09:29:43;;;;;;;14.88;5.80;;;31.90;83.50;;;;;;5041178;28;20391;-76
2022/07/25 09:32:17;;;;;;;6.95;5.88;;;31.90;81.90;;;;;;5045985;28;20021;-73
2022/07/25 09:34:48;;;;;;;12.93;5.72;;;32.00;83.10;;;;;;5039324;28;20025;-72
2022/07/25 09:37:16;;;;;;;9.02;5.88;;;32.10;83.50;;;;;;5040422;28;20037;-73
2022/07/25 09:39:50;;;;;;;6.55;5.82;;;32.10;83.50;;;;;;5041716;28;20022;-73
2022/07/25 09:42:18;;;;;;;14.38;5.45;;;31.90;82.60;;;;;;5038566;28;20045;-74
2022/07/25 09:44:55;;;;;;;13.82;6.57;;;31.70;86.10;;;;;;5042582;28;20116;-73
2022/07/25 09:47:21;;;;;;;12.73;6.65;;;31.60;92.00;;;;;;5035775;28;20522;-73
2022/07/25 09:49:49;;;;;;;16.30;6.82;;;31.50;92.90;;;;;;5044358;28;20029;-72
2022/07/25 09:52:16;;;;;;;9.10;5.88;;;31.50;95.20;;;;;;5039412;28;20059;-73
2022/07/25 09:54:43;;;;;;;11.43;6.70;;;31.30;93.20;;;;;;5042989;28;20029;-73
2022/07/25 09:57:09;;;;;;;13.73;6.38;;;31.20;91.20;;;;;;5040657;28;20037;-72
2022/07/25 09:59:35;;;;;;;7.45;6.45;;;31.20;92.70;;;;;;5042040;28;20051;-72
2022/07/25 10:02:07;;;;;;;7.85;6.25;;;31.10;94.10;;;;;;5039320;28;20083;-72
2022/07/25 10:05:08;;;;;;;8.65;6.63;;;31.20;95.90;;;;;;5040934;28;20115;-73
2022/07/25 10:07:37;;;;;;;7.47;6.68;;;31.20;97.40;;;;;;5041709;28;20040;-74
2022/07/25 10:10:03;;;;;;;9.15;6.18;;;31.30;96.70;;;;;;5043704;28;20044;-72
2022/07/25 10:12:29;;;;;;;7.85;7.05;;;31.40;96.60;;;;;;5042246;28;20078;-74
2022/07/25 10:15:12;;;;;;;11.98;6.63;;;31.30;96.20;;;;;;5037569;28;20430;-73
2022/07/25 10:17:39;;;;;;;7.90;6.20;;;31.20;97.50;;;;;;5036871;28;20439;-72
2022/07/25 10:20:09;;;;;;;9.80;6.18;;;31.20;95.90;;;;;;5045536;28;20044;-74
2022/07/25 10:22:40;;;;;;;9.32;7.00;;;31.10;95.70;;;;;;5044838;28;20025;-73
2022/07/25 10:25:17;;;;;;;6.85;5.93;;;31.10;96.20;;;;;;5040646;28;20025;-73
2022/07/25 10:27:47;;;;;;;8.75;6.03;;;31.20;95.40;;;;;;5043784;28;20499;-75
2022/07/25 10:30:37;;;;;;;10.73;6.25;;;31.30;93.50;;;;;;5035693;28;20068;-73
2022/07/25 10:33:13;;;;;;;11.48;6.13;;;31.20;92.60;;;;;;5046887;28;20480;-74
2022/07/25 10:35:39;;;;;;;9.18;6.07;;;31.20;92.20;;;;;;5037839;28;20380;-72
2022/07/25 10:38:05;;;;;;;8.50;5.18;;;31.30;90.80;;;;;;5041505;28;20056;-73
2022/07/25 10:40:41;;;;;;;15.57;6.20;;;31.40;90.10;;;;;;5042643;28;20075;-74
2022/07/25 10:43:08;;;;;;;8.15;5.80;;;31.30;91.50;;;;;;5045164;28;20051;-73
2022/07/25 10:45:41;;;;;;;6.68;5.97;;;31.40;91.50;;;;;;5038006;28;20488;-71
2022/07/25 10:48:18;;;;;;;8.27;6.55;;;31.40;91.60;;;;;;5040924;28;20117;-74
2022/07/25 10:50:50;;;;;;;6.85;6.15;;;31.20;92.30;;;;;;5037665;28;20021;-74
2022/07/25 10:53:44;;;;;;;8.13;6.28;;;31.20;92.20;;;;;;5040102;28;20029;-73
2022/07/25 10:56:12;;;;;;;13.25;6.20;;;31.30;92.90;;;;;;5038584;28;20025;-73
2022/07/25 10:58:53;;;;;;;12.82;6.32;;;31.30;91.90;;;;;;5041368;28;20043;-73
2022/07/25 11:01:30;;;;;;;11.52;6.45;;;31.40;91.50;;;;;;5044011;28;20407;-72
2022/07/25 11:04:01;;;;;;;7.10;6.13;;;31.40;93.40;;;;;;5042652;28;20025;-75
2022/07/25 11:06:31;;;;;;;8.57;6.03;;;31.60;93.50;;;;;;5042619;28;20408;-73
2022/07/25 11:08:59;;;;;;;7.70;6.32;;;31.70;92.40;;;;;;5047673;28;20028;-73
2022/07/25 11:11:35;;;;;;;6.82;6.07;;;31.60;93.40;;;;;;5041209;28;20388;-73
2022/07/25 11:14:01;;;;;;;9.10;5.82;;;31.70;91.90;;;;;;5039032;28;20445;-73
2022/07/25 11:16:27;;;;;;;7.68;5.72;;;31.70;92.10;;;;;;5042509;28;20037;-73
2022/07/25 11:18:53;;;;;;;6.00;5.50;;;31.70;92.00;;;;;;5042513;28;20032;-73
2022/07/25 11:21:19;;;;;;;6.68;6.07;;;31.80;92.50;;;;;;5040798;28;20090;-71
2022/07/25 11:23:52;;;;;;;6.32;5.72;;;31.90;92.10;;;;;;5042348;28;20072;-72
2022/07/25 11:26:18;;;;;;;13.02;6.00;;;31.70;93.20;;;;;;5042411;28;20100;-73
2022/07/25 11:28:46;;;;;;;7.53;6.20;;;31.90;92.40;;;;;;5040881;28;20025;-72
2022/07/25 11:31:14;;;;;;;12.02;6.47;;;32.00;92.00;;;;;;5042802;28;20026;-73
2022/07/25 11:33:41;;;;;;;10.40;6.43;;;32.00;92.50;;;;;;5045584;28;20037;-74
2022/07/25 11:36:09;;;;;;;9.98;6.68;;;31.90;91.70;;;;;;5037039;28;20036;-72
2022/07/25 11:38:36;;;;;;;7.95;6.05;;;31.90;93.10;;;;;;5039388;28;20408;-73
2022/07/25 11:41:02;;;;;;;8.98;6.35;;;31.90;94.00;;;;;;5043354;28;20029;-73
2022/07/25 11:43:28;;;;;;;7.97;6.00;;;31.80;95.40;;;;;;5039945;28;20046;-74
2022/07/25 11:46:05;;;;;;;11.25;6.35;;;31.70;95.00;;;;;;5042924;28;20450;-74
2022/07/25 11:48:35;;;;;;;14.57;6.60;;;31.90;95.10;;;;;;5040723;28;20046;-73
2022/07/25 11:51:16;;;;;;;8.23;6.95;;;32.00;94.70;;;;;;5042469;28;20030;-74
2022/07/25 11:53:50;;;;;;;8.70;6.40;;;32.00;95.10;;;;;;5032569;28;20111;-73
2022/07/25 11:56:21;;;;;;;15.27;6.53;;;31.90;94.30;;;;;;5041920;28;20043;-73
2022/07/25 11:58:58;;;;;;;7.78;6.45;;;31.90;94.30;;;;;;5040762;28;20421;-74
2022/07/25 12:01:24;;;;;;;9.50;6.88;;;31.80;94.20;;;;;;5045121;28;20025;-73
2022/07/25 12:03:51;;;;;;;11.05;6.72;;;31.80;95.50;;;;;;5043023;28;20452;-73
2022/07/25 12:06:16;;;;;;;13.40;6.63;;;32.00;92.80;;;;;;5038923;28;20112;-73
2022/07/25 12:08:42;;;;;;;6.85;6.13;;;32.10;94.40;;;;;;5043691;28;20105;-73
2022/07/25 12:11:19;;;;;;;9.93;6.93;;;32.40;94.40;;;;;;5045916;28;20039;-73
2022/07/25 12:13:45;;;;;;;11.30;6.20;;;33.20;93.70;;;;;;5045546;28;20021;-76
2022/07/25 12:16:10;;;;;;;6.53;5.85;;;34.30;92.00;;;;;;5042364;28;20030;-73
2022/07/25 12:18:37;;;;;;;11.20;5.88;;;35.20;90.50;;;;;;5044348;28;20018;-72
2022/07/25 12:21:06;;;;;;;11.20;6.13;;;36.00;89.50;;;;;;5046559;28;20023;-72
2022/07/25 12:23:32;;;;;;;10.20;5.82;;;37.00;86.00;;;;;;5043405;28;20475;-73
2022/07/25 12:25:58;;;;;;;14.20;6.05;;;37.80;85.00;;;;;;5045888;28;20120;-72
2022/07/25 12:28:23;;;;;;;15.35;5.95;;;38.30;83.50;;;;;;5042032;28;20109;-73
2022/07/25 12:30:49;;;;;;;11.93;6.65;;;38.70;81.70;;;;;;5044651;28;20037;-74
2022/07/25 12:33:18;;;;;;;7.00;5.68;;;38.80;82.10;;;;;;5048067;28;20049;-73
2022/07/25 12:35:44;;;;;;;8.43;5.90;;;39.40;80.60;;;;;;5048511;28;20104;-74
2022/07/25 12:38:10;;;;;;;12.05;6.40;;;39.80;80.00;;;;;;5044577;28;20469;-74
2022/07/25 12:40:37;;;;;;;7.97;5.65;;;39.50;79.40;;;;;;5048963;28;20399;-74
2022/07/25 12:43:03;;;;;;;7.97;5.78;;;39.90;79.50;;;;;;5043453;28;20056;-74
2022/07/25 12:45:29;;;;;;;8.52;5.35;;;39.90;80.10;;;;;;5044918;28;20024;-74